Station info - map view · info · telemetry · weather · raw · status · beacons · messages · bulletins · browse · moving · my account
Callsign, ship name or locator: Clear       
It is possible to search using wildcards (*?) after a prefix. Example: OH*
APRS station E23FLT-8 - show graphs
Map loading...
Comment: 14.0V 42C APRS IRPC GROUP RAYONG 144.950 MHz
Location: 12°41.00' N 101°14.26' E - locator OK02OQ83MX - show map - static map
1.4 miles West bearing 277° from Rayong, Rayong, Thailand [?]
7.9 miles Southwest bearing 210° from Ban Khai, Rayong, Thailand
76.5 miles Southeast bearing 146° from Samut Prakan, Samut Prakan, Thailand
89.0 miles Southeast bearing 146° from Bangkok, Bangkok, Thailand
Last position: 2018-05-22 08:12:26 EDT (7s ago)
2018-05-22 19:12:26 ICT local time at Rayong, Thailand [?]
Altitude: 4 ft
Course: 91°
Speed: 14 MPH
Device: Argent Data Systems: OpenTracker (tracker)
Last path: E23FLT-8>APOTC1 via WIDE1-1,qAR,E27DRU-3 (good)
Positions stored: 209927
Packet rate: 160 seconds between packets on average during 8022 seconds.
Other SSIDs: E23FLT-9
Stations near current position of E23FLT-8 - show more
callsign distance last heard - EDT      callsign distance last heard - EDT
E27DRU-30.3 miles 144°2018-05-22 07:59:46 E27FGR-90.4 miles 268°2018-05-22 06:32:23
E27RK-140.6 miles 91°2018-05-22 08:00:59 E27DRU-100.6 miles 109°2018-05-22 08:11:12
E27UB-91.0 miles 101°2018-05-21 07:14:28 E27AM1.5 miles 351°2018-05-01 09:13:52
E27HGO-73.5 miles 108°2018-05-22 07:38:39 E24ORD-103.6 miles 265°2018-05-22 06:32:43
HS2AR3.8 miles 52°2018-05-22 08:11:40 E27FSR-83.8 miles 80°2018-05-22 08:11:03
E27FGU-94.3 miles 89°2018-05-22 07:58:09 HS2EOY-94.3 miles 89°2018-05-22 07:54:51
E27FSR-94.4 miles 86°2018-05-22 06:49:07 E27FGU4.4 miles 90°2018-05-22 07:50:34
HS2EOY-54.7 miles 86°2018-05-10 10:00:18 E24ORD-94.7 miles 267°2018-05-20 22:58:06
HS2EOY4.8 miles 86°2018-05-09 09:25:59 HS2EOY-104.8 miles 86°2018-05-22 07:45:22
E24ORD-15.1 miles 252°2018-05-22 08:02:13 E27HGO-85.4 miles 119°2018-05-22 07:00:22
Stations which heard E23FLT-8 directly on radio –
callsign pkts first heard - EDT last heard longest (tx => rx) longest at - EDT
HS7PFS-1 4 2018-05-02 02:02:26 2018-05-02 02:05:01 OK03AK > OK03AL 2.9 miles 19° 2018-05-02 02:02:26
HS2EOY 204 2018-05-02 05:56:48 2018-05-09 06:24:39 OK02OQ > OK02PQ 5.9 miles 81° 2018-05-02 22:06:49
HS6KLJ-1 3 2018-05-02 02:16:23 2018-05-02 02:18:27 OK03CM > OK03CM 1.3 miles 267° 2018-05-02 02:18:27
E29DLR-7 1 2018-05-02 02:19:29 2018-05-02 02:19:29 OK03CN > OK03CN 0.3 miles 276° 2018-05-02 02:19:29
E23QD-1 9 2018-04-30 22:45:58 2018-04-30 22:56:30 OJ07AL > OJ07AN 5.1 miles 348° 2018-04-30 22:45:58
E21DII 1 2018-05-02 03:35:49 2018-05-02 03:35:49 OK03HO > OK03IO 2.1 miles 116° 2018-05-02 03:35:49
E27FGU 5 2018-05-07 05:17:28 2018-05-20 02:18:30 OK02OQ > OK02PQ 3.8 miles 104° 2018-05-17 06:22:45
HS6KLJ-2 7 2018-05-02 03:36:20 2018-05-02 03:43:55 OK03IP > OK03HP 2.7 miles 221° 2018-05-02 03:43:55
HS1BLJ-1 1 2018-05-02 03:39:59 2018-05-02 03:39:59 OK03IP > OK03IO 3.0 miles 154° 2018-05-02 03:39:59
HS2EOY-1 686 2018-05-02 08:36:08 2018-05-22 07:54:45 OK02OQ > OK02PQ 7.1 miles 79° 2018-05-16 07:58:05
HS6SQF-1 7 2018-05-02 04:58:09 2018-05-02 05:06:56 OK03MF > OK03LH 6.4 miles 333° 2018-05-02 05:06:56
HS6KLJ-3 7 2018-05-02 03:36:22 2018-05-02 03:43:56 OK03HO > OK03JR 12.7 miles 52° 2018-05-02 03:36:22
E21TMW-9 1 2018-05-19 01:50:33 2018-05-19 01:50:33 OK02PQ > OK02OQ 1.7 miles 258° 2018-05-19 01:50:33
HS5TQA-3 2 2018-05-02 02:58:41 2018-05-02 03:12:52 OK03EO > OK03EQ 6.8 miles 342° 2018-05-02 02:58:41
HS6KLJ-4 5 2018-05-02 02:14:52 2018-05-02 02:19:33 OK03CM > NK97WG 258.7 miles 356° 2018-05-02 02:14:52
E20BFQ 3 2018-05-02 02:27:38 2018-05-02 02:29:14 OK03DO > OK03DO 1.5 miles 22° 2018-05-02 02:27:38
E20BFQ-3 24 2018-05-02 02:30:53 2018-05-02 03:20:05 OK03EO > OK03FN 5.2 miles 100° 2018-05-02 02:30:53
E29WWT-1 1 2018-05-01 01:10:58 2018-05-01 01:10:58 NJ99OB > NJ99NB 2.4 miles 297° 2018-05-01 01:10:58
E20BFQ-1 17 2018-05-02 00:43:24 2018-05-02 01:15:51 NK92XS > NK92XV 7.3 miles 335° 2018-05-02 00:43:24
E21EIC 4 2018-05-02 03:20:36 2018-05-02 03:26:53 OK03GP > OK03FQ 4.4 miles 315° 2018-05-02 03:26:53
HS2AR 430 2018-05-02 05:37:43 2018-05-22 08:10:08 OK02NU > OK02PR 15.0 miles 127° 2018-05-02 05:37:43
HS1BLJ-2 2 2018-05-02 04:01:23 2018-05-02 04:01:54 OK03JQ > OK03JP 3.5 miles 227° 2018-05-02 04:01:23
HS2AAJ-2 1 2018-05-02 04:59:42 2018-05-02 04:59:42 OK03MH > OK03LI 2.6 miles 326° 2018-05-02 04:59:42
E21RBE-1 2 2018-05-02 04:57:38 2018-05-02 04:59:11 OK03MI > OK03MH 2.3 miles 195° 2018-05-02 04:57:38
E27DRU-3 1325 2018-05-02 06:00:10 2018-05-22 08:12:26 OK02NR > OK02OQ 10.7 miles 115° 2018-05-12 10:40:55
HS0QKD-2 3 2018-05-02 05:04:23 2018-05-02 05:15:49 OK03LG > OK03LB 12.8 miles 202° 2018-05-02 05:04:23
E27UF 11 2018-05-11 07:14:38 2018-05-22 07:47:52 OK02OQ > OK02VT 36.3 miles 76° 2018-05-21 21:04:25
HS5SQI-3 4 2018-05-02 04:49:19 2018-05-02 04:54:32 OK03ML > OK03MJ 4.9 miles 194° 2018-05-02 04:49:19
E24RSR-1 1 2018-05-02 05:04:21 2018-05-02 05:04:21 OK03LG > OK03LH 5.4 miles 309° 2018-05-02 05:04:21
0S9LVQ-1 10 2018-04-30 21:35:10 2018-04-30 22:00:45 OJ07EA > OJ07GA 7.9 miles 81° 2018-04-30 22:00:45
E29EKN 10 2018-05-02 02:02:57 2018-05-02 02:14:50 OK03AK > OK03BL 6.3 miles 54° 2018-05-02 02:02:57

Only position packets which were originated by the station are shown here. The range statistics show some extra long hops, because some digipeaters do not correctly add themselves to the digipeater path. Please check the raw packets.
About this site
This page shows real-time information collected from the Automatic Position Reporting System Internet network (APRS-IS). APRS is used by amateur (ham) radio operators to transmit real-time position information, weather data, telemetry and messages over the radio. A vehicle equipped with a GPS receiver, a VHF transmitter or HF transceiver and a small computer device called a tracker transmits it's location, speed and course in a small data packet, which is then received by a nearby iGate receiving site which forwards the packet on the Internet. Systems connected to the Internet can send information on the APRS-IS without a radio transmitter, or collect and display information transmitted anywhere in the world.
FAQ · Blog · Discussion group · Linking to aprs.fi · AIS sites · Service status · Database statistics · Advertising on aprs.fi · Technical details · API · Change log · Planned changes · Credits and thanks · Terms Of Service · iPhone/iPad APRS